sensor_id;sensor_type;location;lat;lon;timestamp;P1;durP1;ratioP1;P2;durP2;ratioP2
39044;SDS011;52192;52.002;5.956;2024-02-14T00:00:28;3.05;;;1.23;;
39044;SDS011;52192;52.002;5.956;2024-02-14T00:02:54;1.52;;;1.20;;
39044;SDS011;52192;52.002;5.956;2024-02-14T00:05:20;1.55;;;0.93;;
39044;SDS011;52192;52.002;5.956;2024-02-14T00:07:45;1.10;;;0.70;;
39044;SDS011;52192;52.002;5.956;2024-02-14T00:10:11;3.13;;;0.93;;
39044;SDS011;52192;52.002;5.956;2024-02-14T00:12:37;2.92;;;1.60;;
39044;SDS011;52192;52.002;5.956;2024-02-14T00:15:03;1.00;;;0.90;;
39044;SDS011;52192;52.002;5.956;2024-02-14T00:17:32;2.67;;;1.13;;
39044;SDS011;52192;52.002;5.956;2024-02-14T00:20:02;0.93;;;0.90;;
39044;SDS011;52192;52.002;5.956;2024-02-14T00:22:29;1.40;;;0.90;;
39044;SDS011;52192;52.002;5.956;2024-02-14T00:24:55;1.58;;;0.85;;
39044;SDS011;52192;52.002;5.956;2024-02-14T00:27:21;1.45;;;0.90;;
39044;SDS011;52192;52.002;5.956;2024-02-14T00:29:47;1.27;;;1.08;;
39044;SDS011;52192;52.002;5.956;2024-02-14T00:32:13;1.20;;;1.10;;
39044;SDS011;52192;52.002;5.956;2024-02-14T00:34:39;1.63;;;1.15;;
39044;SDS011;52192;52.002;5.956;2024-02-14T00:37:05;1.20;;;1.10;;
39044;SDS011;52192;52.002;5.956;2024-02-14T00:39:31;1.73;;;1.05;;
39044;SDS011;52192;52.002;5.956;2024-02-14T00:41:57;0.85;;;0.75;;
39044;SDS011;52192;52.002;5.956;2024-02-14T00:44:23;3.00;;;1.30;;
39044;SDS011;52192;52.002;5.956;2024-02-14T00:46:49;1.02;;;0.70;;
39044;SDS011;52192;52.002;5.956;2024-02-14T00:49:15;1.23;;;0.90;;
39044;SDS011;52192;52.002;5.956;2024-02-14T00:51:41;1.00;;;0.90;;
39044;SDS011;52192;52.002;5.956;2024-02-14T00:54:07;0.70;;;0.70;;
39044;SDS011;52192;52.002;5.956;2024-02-14T00:56:33;1.05;;;0.93;;
39044;SDS011;52192;52.002;5.956;2024-02-14T00:58:59;4.05;;;1.90;;
39044;SDS011;52192;52.002;5.956;2024-02-14T01:01:26;1.73;;;1.20;;
39044;SDS011;52192;52.002;5.956;2024-02-14T01:03:52;1.10;;;1.00;;
39044;SDS011;52192;52.002;5.956;2024-02-14T01:06:18;2.58;;;1.52;;
39044;SDS011;52192;52.002;5.956;2024-02-14T01:08:45;1.23;;;1.13;;
39044;SDS011;52192;52.002;5.956;2024-02-14T01:11:11;1.27;;;1.17;;
39044;SDS011;52192;52.002;5.956;2024-02-14T01:13:37;1.67;;;1.33;;
39044;SDS011;52192;52.002;5.956;2024-02-14T01:16:03;2.08;;;1.23;;
39044;SDS011;52192;52.002;5.956;2024-02-14T01:18:30;2.88;;;1.40;;
39044;SDS011;52192;52.002;5.956;2024-02-14T01:20:56;1.55;;;1.17;;
39044;SDS011;52192;52.002;5.956;2024-02-14T01:23:25;1.98;;;1.00;;
39044;SDS011;52192;52.002;5.956;2024-02-14T01:25:51;1.10;;;1.00;;
39044;SDS011;52192;52.002;5.956;2024-02-14T01:28:19;1.30;;;1.13;;
39044;SDS011;52192;52.002;5.956;2024-02-14T01:30:45;1.63;;;1.50;;
39044;SDS011;52192;52.002;5.956;2024-02-14T01:33:11;4.13;;;1.73;;
39044;SDS011;52192;52.002;5.956;2024-02-14T01:35:37;1.15;;;1.00;;
39044;SDS011;52192;52.002;5.956;2024-02-14T01:38:03;1.75;;;0.98;;
39044;SDS011;52192;52.002;5.956;2024-02-14T01:40:29;1.55;;;1.00;;
39044;SDS011;52192;52.002;5.956;2024-02-14T01:42:55;1.58;;;1.35;;
39044;SDS011;52192;52.002;5.956;2024-02-14T01:45:21;2.35;;;1.73;;
39044;SDS011;52192;52.002;5.956;2024-02-14T01:47:48;3.25;;;1.58;;
39044;SDS011;52192;52.002;5.956;2024-02-14T01:50:15;1.70;;;1.25;;
39044;SDS011;52192;52.002;5.956;2024-02-14T01:52:43;2.03;;;1.58;;
39044;SDS011;52192;52.002;5.956;2024-02-14T01:55:10;1.05;;;0.98;;
39044;SDS011;52192;52.002;5.956;2024-02-14T01:57:38;2.03;;;1.40;;
39044;SDS011;52192;52.002;5.956;2024-02-14T02:00:05;3.33;;;1.15;;
39044;SDS011;52192;52.002;5.956;2024-02-14T02:02:35;2.58;;;1.42;;
39044;SDS011;52192;52.002;5.956;2024-02-14T02:05:05;1.90;;;1.52;;
39044;SDS011;52192;52.002;5.956;2024-02-14T02:07:32;3.15;;;1.67;;
39044;SDS011;52192;52.002;5.956;2024-02-14T02:09:58;2.33;;;1.75;;
39044;SDS011;52192;52.002;5.956;2024-02-14T02:12:24;2.42;;;1.42;;
39044;SDS011;52192;52.002;5.956;2024-02-14T02:14:52;2.67;;;1.80;;
39044;SDS011;52192;52.002;5.956;2024-02-14T02:17:18;3.53;;;1.15;;
39044;SDS011;52192;52.002;5.956;2024-02-14T02:19:44;3.22;;;1.90;;
39044;SDS011;52192;52.002;5.956;2024-02-14T02:22:10;1.83;;;1.33;;
39044;SDS011;52192;52.002;5.956;2024-02-14T02:24:35;4.28;;;1.30;;
39044;SDS011;52192;52.002;5.956;2024-02-14T02:27:02;2.20;;;1.55;;
39044;SDS011;52192;52.002;5.956;2024-02-14T02:29:28;2.45;;;1.60;;
39044;SDS011;52192;52.002;5.956;2024-02-14T02:31:54;3.35;;;1.55;;
39044;SDS011;52192;52.002;5.956;2024-02-14T02:34:20;1.88;;;1.42;;
39044;SDS011;52192;52.002;5.956;2024-02-14T02:36:46;2.00;;;1.10;;
39044;SDS011;52192;52.002;5.956;2024-02-14T02:39:14;4.55;;;1.70;;
39044;SDS011;52192;52.002;5.956;2024-02-14T02:41:41;2.72;;;1.27;;
39044;SDS011;52192;52.002;5.956;2024-02-14T02:44:07;4.65;;;2.22;;
39044;SDS011;52192;52.002;5.956;2024-02-14T02:46:33;1.42;;;1.15;;
39044;SDS011;52192;52.002;5.956;2024-02-14T02:48:58;2.45;;;1.75;;
39044;SDS011;52192;52.002;5.956;2024-02-14T02:51:24;1.75;;;1.60;;
39044;SDS011;52192;52.002;5.956;2024-02-14T02:53:50;1.98;;;1.60;;
39044;SDS011;52192;52.002;5.956;2024-02-14T02:56:19;7.80;;;1.95;;
39044;SDS011;52192;52.002;5.956;2024-02-14T02:58:47;3.50;;;1.67;;
39044;SDS011;52192;52.002;5.956;2024-02-14T03:01:13;3.47;;;1.77;;
39044;SDS011;52192;52.002;5.956;2024-02-14T03:03:39;2.25;;;1.52;;
39044;SDS011;52192;52.002;5.956;2024-02-14T03:06:06;2.35;;;1.65;;
39044;SDS011;52192;52.002;5.956;2024-02-14T03:08:33;2.70;;;1.50;;
39044;SDS011;52192;52.002;5.956;2024-02-14T03:11:05;1.85;;;1.23;;
39044;SDS011;52192;52.002;5.956;2024-02-14T03:15:57;2.60;;;1.30;;
39044;SDS011;52192;52.002;5.956;2024-02-14T03:18:24;2.20;;;1.50;;
39044;SDS011;52192;52.002;5.956;2024-02-14T03:20:50;1.77;;;1.67;;
39044;SDS011;52192;52.002;5.956;2024-02-14T03:23:18;1.58;;;1.23;;
39044;SDS011;52192;52.002;5.956;2024-02-14T03:25:45;2.90;;;1.63;;
39044;SDS011;52192;52.002;5.956;2024-02-14T03:28:11;1.98;;;1.58;;
39044;SDS011;52192;52.002;5.956;2024-02-14T03:30:38;2.92;;;1.77;;
39044;SDS011;52192;52.002;5.956;2024-02-14T03:33:04;1.98;;;1.23;;
39044;SDS011;52192;52.002;5.956;2024-02-14T03:35:32;1.52;;;1.08;;
39044;SDS011;52192;52.002;5.956;2024-02-14T03:38:00;2.40;;;1.27;;
39044;SDS011;52192;52.002;5.956;2024-02-14T03:40:27;3.40;;;1.45;;
39044;SDS011;52192;52.002;5.956;2024-02-14T03:42:55;2.25;;;1.50;;
39044;SDS011;52192;52.002;5.956;2024-02-14T03:45:22;3.88;;;1.77;;
39044;SDS011;52192;52.002;5.956;2024-02-14T03:47:47;4.07;;;1.90;;
39044;SDS011;52192;52.002;5.956;2024-02-14T03:50:13;2.55;;;1.80;;
39044;SDS011;52192;52.002;5.956;2024-02-14T03:52:41;4.15;;;1.75;;
39044;SDS011;52192;52.002;5.956;2024-02-14T03:55:07;1.25;;;1.15;;
39044;SDS011;52192;52.002;5.956;2024-02-14T03:57:38;4.63;;;1.67;;
39044;SDS011;52192;52.002;5.956;2024-02-14T04:00:05;2.63;;;1.90;;
39044;SDS011;52192;52.002;5.956;2024-02-14T04:02:35;3.58;;;2.20;;
39044;SDS011;52192;52.002;5.956;2024-02-14T04:05:01;3.65;;;2.22;;
39044;SDS011;52192;52.002;5.956;2024-02-14T04:07:31;2.78;;;1.63;;
39044;SDS011;52192;52.002;5.956;2024-02-14T04:09:59;2.38;;;1.75;;
39044;SDS011;52192;52.002;5.956;2024-02-14T04:12:25;4.22;;;2.58;;
39044;SDS011;52192;52.002;5.956;2024-02-14T04:14:51;3.80;;;2.35;;
39044;SDS011;52192;52.002;5.956;2024-02-14T04:17:17;3.28;;;2.08;;
39044;SDS011;52192;52.002;5.956;2024-02-14T04:19:42;2.88;;;2.33;;
39044;SDS011;52192;52.002;5.956;2024-02-14T04:22:08;6.93;;;2.28;;
39044;SDS011;52192;52.002;5.956;2024-02-14T04:24:34;4.65;;;2.33;;
39044;SDS011;52192;52.002;5.956;2024-02-14T04:27:00;2.95;;;2.08;;
39044;SDS011;52192;52.002;5.956;2024-02-14T04:29:28;4.30;;;2.65;;
39044;SDS011;52192;52.002;5.956;2024-02-14T04:32:04;4.18;;;2.50;;
39044;SDS011;52192;52.002;5.956;2024-02-14T04:34:30;6.18;;;2.38;;
39044;SDS011;52192;52.002;5.956;2024-02-14T04:36:56;7.13;;;3.08;;
39044;SDS011;52192;52.002;5.956;2024-02-14T04:39:22;6.43;;;2.25;;
39044;SDS011;52192;52.002;5.956;2024-02-14T04:41:48;4.28;;;3.20;;
39044;SDS011;52192;52.002;5.956;2024-02-14T04:44:15;4.35;;;2.30;;
39044;SDS011;52192;52.002;5.956;2024-02-14T04:46:41;5.32;;;2.40;;
39044;SDS011;52192;52.002;5.956;2024-02-14T04:49:09;3.13;;;2.20;;
39044;SDS011;52192;52.002;5.956;2024-02-14T04:51:35;3.67;;;2.47;;
39044;SDS011;52192;52.002;5.956;2024-02-14T04:54:00;3.40;;;2.17;;
39044;SDS011;52192;52.002;5.956;2024-02-14T04:56:26;3.65;;;2.55;;
39044;SDS011;52192;52.002;5.956;2024-02-14T04:58:55;3.30;;;2.35;;
39044;SDS011;52192;52.002;5.956;2024-02-14T05:01:21;5.05;;;2.50;;
39044;SDS011;52192;52.002;5.956;2024-02-14T05:03:47;4.70;;;2.30;;
39044;SDS011;52192;52.002;5.956;2024-02-14T05:06:14;6.43;;;3.38;;
39044;SDS011;52192;52.002;5.956;2024-02-14T05:08:41;3.88;;;2.42;;
39044;SDS011;52192;52.002;5.956;2024-02-14T05:11:06;3.70;;;2.15;;
39044;SDS011;52192;52.002;5.956;2024-02-14T05:13:32;6.32;;;3.08;;
39044;SDS011;52192;52.002;5.956;2024-02-14T05:16:01;5.05;;;2.63;;
39044;SDS011;52192;52.002;5.956;2024-02-14T05:18:28;5.43;;;2.80;;
39044;SDS011;52192;52.002;5.956;2024-02-14T05:20:54;5.63;;;2.90;;
39044;SDS011;52192;52.002;5.956;2024-02-14T05:23:20;3.85;;;2.75;;
39044;SDS011;52192;52.002;5.956;2024-02-14T05:25:46;4.03;;;2.78;;
39044;SDS011;52192;52.002;5.956;2024-02-14T05:28:13;4.80;;;3.00;;
39044;SDS011;52192;52.002;5.956;2024-02-14T05:30:42;3.25;;;2.58;;
39044;SDS011;52192;52.002;5.956;2024-02-14T05:33:08;5.22;;;2.60;;
39044;SDS011;52192;52.002;5.956;2024-02-14T05:35:34;3.95;;;2.97;;
39044;SDS011;52192;52.002;5.956;2024-02-14T05:38:00;3.92;;;2.78;;
39044;SDS011;52192;52.002;5.956;2024-02-14T05:40:26;5.20;;;2.53;;
39044;SDS011;52192;52.002;5.956;2024-02-14T05:42:52;4.22;;;2.90;;
39044;SDS011;52192;52.002;5.956;2024-02-14T05:45:17;3.33;;;2.15;;
39044;SDS011;52192;52.002;5.956;2024-02-14T05:47:43;5.18;;;3.00;;
39044;SDS011;52192;52.002;5.956;2024-02-14T05:50:09;5.93;;;3.33;;
39044;SDS011;52192;52.002;5.956;2024-02-14T05:52:37;6.32;;;2.90;;
39044;SDS011;52192;52.002;5.956;2024-02-14T05:55:03;4.32;;;2.88;;
39044;SDS011;52192;52.002;5.956;2024-02-14T05:57:30;3.72;;;2.53;;
39044;SDS011;52192;52.002;5.956;2024-02-14T05:59:55;4.90;;;3.00;;
39044;SDS011;52192;52.002;5.956;2024-02-14T06:02:21;5.88;;;3.30;;
39044;SDS011;52192;52.002;5.956;2024-02-14T06:04:47;4.97;;;2.40;;
39044;SDS011;52192;52.002;5.956;2024-02-14T06:07:12;5.55;;;2.67;;
39044;SDS011;52192;52.002;5.956;2024-02-14T06:09:38;6.95;;;2.70;;
39044;SDS011;52192;52.002;5.956;2024-02-14T06:12:04;6.78;;;2.75;;
39044;SDS011;52192;52.002;5.956;2024-02-14T06:14:30;5.38;;;2.60;;
39044;SDS011;52192;52.002;5.956;2024-02-14T06:16:58;3.80;;;2.47;;
39044;SDS011;52192;52.002;5.956;2024-02-14T06:19:24;4.00;;;2.35;;
39044;SDS011;52192;52.002;5.956;2024-02-14T06:21:50;4.40;;;1.88;;
39044;SDS011;52192;52.002;5.956;2024-02-14T06:24:16;3.53;;;2.13;;
39044;SDS011;52192;52.002;5.956;2024-02-14T06:26:44;3.90;;;2.70;;
39044;SDS011;52192;52.002;5.956;2024-02-14T06:29:10;4.25;;;2.40;;
39044;SDS011;52192;52.002;5.956;2024-02-14T06:31:35;5.00;;;2.97;;
39044;SDS011;52192;52.002;5.956;2024-02-14T06:34:01;4.15;;;2.10;;
39044;SDS011;52192;52.002;5.956;2024-02-14T06:36:27;2.97;;;1.85;;
39044;SDS011;52192;52.002;5.956;2024-02-14T06:38:52;3.35;;;2.20;;
39044;SDS011;52192;52.002;5.956;2024-02-14T06:41:18;6.75;;;2.92;;
39044;SDS011;52192;52.002;5.956;2024-02-14T06:43:45;7.30;;;2.60;;
39044;SDS011;52192;52.002;5.956;2024-02-14T06:46:11;3.72;;;2.20;;
39044;SDS011;52192;52.002;5.956;2024-02-14T06:48:37;3.22;;;2.30;;
39044;SDS011;52192;52.002;5.956;2024-02-14T06:51:02;3.72;;;1.90;;
39044;SDS011;52192;52.002;5.956;2024-02-14T06:53:28;3.50;;;2.33;;
39044;SDS011;52192;52.002;5.956;2024-02-14T06:55:55;6.57;;;2.25;;
39044;SDS011;52192;52.002;5.956;2024-02-14T06:58:21;3.22;;;2.10;;
39044;SDS011;52192;52.002;5.956;2024-02-14T07:00:46;5.32;;;2.70;;
39044;SDS011;52192;52.002;5.956;2024-02-14T07:03:12;5.70;;;2.42;;
39044;SDS011;52192;52.002;5.956;2024-02-14T07:05:38;3.10;;;2.53;;
39044;SDS011;52192;52.002;5.956;2024-02-14T07:08:04;4.32;;;2.50;;
39044;SDS011;52192;52.002;5.956;2024-02-14T07:10:30;3.47;;;2.22;;
39044;SDS011;52192;52.002;5.956;2024-02-14T07:12:57;4.95;;;2.10;;
39044;SDS011;52192;52.002;5.956;2024-02-14T07:15:23;4.20;;;2.38;;
39044;SDS011;52192;52.002;5.956;2024-02-14T07:17:53;3.00;;;1.85;;
39044;SDS011;52192;52.002;5.956;2024-02-14T07:20:22;4.13;;;2.22;;
39044;SDS011;52192;52.002;5.956;2024-02-14T07:22:50;3.35;;;2.42;;
39044;SDS011;52192;52.002;5.956;2024-02-14T07:25:18;6.55;;;2.90;;
39044;SDS011;52192;52.002;5.956;2024-02-14T07:27:45;3.53;;;2.60;;
39044;SDS011;52192;52.002;5.956;2024-02-14T07:30:11;5.57;;;2.95;;
39044;SDS011;52192;52.002;5.956;2024-02-14T07:32:37;3.08;;;2.20;;
39044;SDS011;52192;52.002;5.956;2024-02-14T07:35:03;6.38;;;3.10;;
39044;SDS011;52192;52.002;5.956;2024-02-14T07:37:30;5.97;;;2.40;;
39044;SDS011;52192;52.002;5.956;2024-02-14T07:39:55;3.17;;;2.30;;
39044;SDS011;52192;52.002;5.956;2024-02-14T07:42:21;6.32;;;2.67;;
39044;SDS011;52192;52.002;5.956;2024-02-14T07:44:47;3.95;;;2.53;;
39044;SDS011;52192;52.002;5.956;2024-02-14T07:47:12;5.00;;;3.22;;
39044;SDS011;52192;52.002;5.956;2024-02-14T07:49:39;3.60;;;2.30;;
39044;SDS011;52192;52.002;5.956;2024-02-14T07:52:05;3.75;;;2.38;;
39044;SDS011;52192;52.002;5.956;2024-02-14T07:54:31;5.07;;;2.65;;
39044;SDS011;52192;52.002;5.956;2024-02-14T07:56:56;5.30;;;2.90;;
39044;SDS011;52192;52.002;5.956;2024-02-14T07:59:22;6.18;;;2.47;;
39044;SDS011;52192;52.002;5.956;2024-02-14T08:01:48;5.25;;;3.00;;
39044;SDS011;52192;52.002;5.956;2024-02-14T08:04:13;5.05;;;2.47;;
39044;SDS011;52192;52.002;5.956;2024-02-14T08:06:40;7.88;;;3.28;;
39044;SDS011;52192;52.002;5.956;2024-02-14T08:09:06;4.80;;;3.08;;
39044;SDS011;52192;52.002;5.956;2024-02-14T08:11:34;5.55;;;2.90;;
39044;SDS011;52192;52.002;5.956;2024-02-14T08:14:01;4.47;;;2.58;;
39044;SDS011;52192;52.002;5.956;2024-02-14T08:16:27;4.25;;;2.78;;
39044;SDS011;52192;52.002;5.956;2024-02-14T08:18:52;4.38;;;2.83;;
39044;SDS011;52192;52.002;5.956;2024-02-14T08:21:24;4.10;;;2.45;;
39044;SDS011;52192;52.002;5.956;2024-02-14T08:23:51;4.68;;;2.83;;
39044;SDS011;52192;52.002;5.956;2024-02-14T08:26:17;4.75;;;2.92;;
39044;SDS011;52192;52.002;5.956;2024-02-14T08:28:43;4.75;;;3.20;;
39044;SDS011;52192;52.002;5.956;2024-02-14T08:31:11;6.10;;;2.38;;
39044;SDS011;52192;52.002;5.956;2024-02-14T08:33:37;4.03;;;2.70;;
39044;SDS011;52192;52.002;5.956;2024-02-14T08:36:04;3.55;;;2.50;;
39044;SDS011;52192;52.002;5.956;2024-02-14T08:38:30;5.30;;;2.85;;
39044;SDS011;52192;52.002;5.956;2024-02-14T08:40:55;6.88;;;3.20;;
39044;SDS011;52192;52.002;5.956;2024-02-14T08:43:22;4.25;;;2.65;;
39044;SDS011;52192;52.002;5.956;2024-02-14T08:45:50;4.97;;;2.50;;
39044;SDS011;52192;52.002;5.956;2024-02-14T08:48:16;3.47;;;2.03;;
39044;SDS011;52192;52.002;5.956;2024-02-14T08:50:42;5.13;;;3.03;;
39044;SDS011;52192;52.002;5.956;2024-02-14T08:53:08;3.53;;;2.25;;
39044;SDS011;52192;52.002;5.956;2024-02-14T08:55:34;2.80;;;1.90;;
39044;SDS011;52192;52.002;5.956;2024-02-14T08:58:01;6.38;;;2.72;;
39044;SDS011;52192;52.002;5.956;2024-02-14T09:00:27;4.22;;;2.63;;
39044;SDS011;52192;52.002;5.956;2024-02-14T09:02:52;4.70;;;2.70;;
39044;SDS011;52192;52.002;5.956;2024-02-14T09:05:18;5.50;;;2.90;;
39044;SDS011;52192;52.002;5.956;2024-02-14T09:07:44;4.72;;;2.85;;
39044;SDS011;52192;52.002;5.956;2024-02-14T09:10:10;4.03;;;2.20;;
39044;SDS011;52192;52.002;5.956;2024-02-14T09:12:37;2.78;;;2.05;;
39044;SDS011;52192;52.002;5.956;2024-02-14T09:15:04;4.15;;;2.28;;
39044;SDS011;52192;52.002;5.956;2024-02-14T09:17:31;2.53;;;1.90;;
39044;SDS011;52192;52.002;5.956;2024-02-14T09:19:57;2.85;;;2.17;;
39044;SDS011;52192;52.002;5.956;2024-02-14T09:22:22;2.45;;;1.90;;
39044;SDS011;52192;52.002;5.956;2024-02-14T09:24:48;2.95;;;2.33;;
39044;SDS011;52192;52.002;5.956;2024-02-14T09:27:15;2.85;;;1.92;;
39044;SDS011;52192;52.002;5.956;2024-02-14T09:29:41;4.38;;;2.40;;
39044;SDS011;52192;52.002;5.956;2024-02-14T09:32:07;2.50;;;1.65;;
39044;SDS011;52192;52.002;5.956;2024-02-14T09:34:33;3.83;;;2.03;;
39044;SDS011;52192;52.002;5.956;2024-02-14T09:36:59;2.13;;;1.65;;
39044;SDS011;52192;52.002;5.956;2024-02-14T09:39:25;4.07;;;2.53;;
39044;SDS011;52192;52.002;5.956;2024-02-14T09:41:58;2.78;;;1.92;;
39044;SDS011;52192;52.002;5.956;2024-02-14T09:44:30;3.90;;;1.95;;
39044;SDS011;52192;52.002;5.956;2024-02-14T09:46:57;2.40;;;1.90;;
39044;SDS011;52192;52.002;5.956;2024-02-14T09:49:24;3.45;;;1.95;;
39044;SDS011;52192;52.002;5.956;2024-02-14T09:51:50;3.55;;;2.08;;
39044;SDS011;52192;52.002;5.956;2024-02-14T09:54:18;3.38;;;2.20;;
39044;SDS011;52192;52.002;5.956;2024-02-14T09:56:48;5.72;;;2.55;;
39044;SDS011;52192;52.002;5.956;2024-02-14T09:59:22;3.28;;;2.25;;
39044;SDS011;52192;52.002;5.956;2024-02-14T10:01:48;3.17;;;2.25;;
39044;SDS011;52192;52.002;5.956;2024-02-14T10:04:16;2.97;;;1.98;;
39044;SDS011;52192;52.002;5.956;2024-02-14T10:06:44;3.20;;;1.95;;
39044;SDS011;52192;52.002;5.956;2024-02-14T10:09:10;6.97;;;2.45;;
39044;SDS011;52192;52.002;5.956;2024-02-14T10:11:36;4.65;;;2.58;;
39044;SDS011;52192;52.002;5.956;2024-02-14T10:14:04;6.32;;;2.72;;
39044;SDS011;52192;52.002;5.956;2024-02-14T10:16:34;5.35;;;1.98;;
39044;SDS011;52192;52.002;5.956;2024-02-14T10:19:00;2.42;;;1.80;;
39044;SDS011;52192;52.002;5.956;2024-02-14T10:21:26;3.45;;;2.22;;
39044;SDS011;52192;52.002;5.956;2024-02-14T10:23:53;3.58;;;2.60;;
39044;SDS011;52192;52.002;5.956;2024-02-14T10:26:22;11.02;;;3.80;;
39044;SDS011;52192;52.002;5.956;2024-02-14T10:28:48;2.33;;;1.67;;
39044;SDS011;52192;52.002;5.956;2024-02-14T10:31:16;3.20;;;2.03;;
39044;SDS011;52192;52.002;5.956;2024-02-14T10:33:42;4.00;;;2.42;;
39044;SDS011;52192;52.002;5.956;2024-02-14T10:36:08;2.83;;;1.95;;
39044;SDS011;52192;52.002;5.956;2024-02-14T10:38:36;3.67;;;2.42;;
39044;SDS011;52192;52.002;5.956;2024-02-14T10:41:04;3.30;;;2.30;;
39044;SDS011;52192;52.002;5.956;2024-02-14T10:43:30;3.22;;;1.92;;
39044;SDS011;52192;52.002;5.956;2024-02-14T10:45:58;5.70;;;3.28;;
39044;SDS011;52192;52.002;5.956;2024-02-14T10:48:25;5.43;;;2.50;;
39044;SDS011;52192;52.002;5.956;2024-02-14T10:50:58;4.88;;;2.92;;
39044;SDS011;52192;52.002;5.956;2024-02-14T10:53:27;4.10;;;2.10;;
39044;SDS011;52192;52.002;5.956;2024-02-14T10:55:58;4.77;;;2.60;;
39044;SDS011;52192;52.002;5.956;2024-02-14T10:58:25;3.40;;;2.03;;
39044;SDS011;52192;52.002;5.956;2024-02-14T11:00:55;4.50;;;2.33;;
39044;SDS011;52192;52.002;5.956;2024-02-14T11:03:21;1.95;;;1.45;;
39044;SDS011;52192;52.002;5.956;2024-02-14T11:05:48;2.75;;;2.05;;
39044;SDS011;52192;52.002;5.956;2024-02-14T11:08:23;5.53;;;2.65;;
39044;SDS011;52192;52.002;5.956;2024-02-14T11:10:54;3.72;;;2.45;;
39044;SDS011;52192;52.002;5.956;2024-02-14T11:13:21;6.07;;;2.60;;
39044;SDS011;52192;52.002;5.956;2024-02-14T11:15:51;4.13;;;2.58;;
39044;SDS011;52192;52.002;5.956;2024-02-14T11:18:26;6.35;;;2.60;;
39044;SDS011;52192;52.002;5.956;2024-02-14T11:20:56;2.35;;;1.92;;
39044;SDS011;52192;52.002;5.956;2024-02-14T11:23:25;9.52;;;2.20;;
39044;SDS011;52192;52.002;5.956;2024-02-14T11:25:59;2.55;;;1.88;;
39044;SDS011;52192;52.002;5.956;2024-02-14T11:28:29;4.93;;;2.53;;
39044;SDS011;52192;52.002;5.956;2024-02-14T11:30:58;5.03;;;2.33;;
39044;SDS011;52192;52.002;5.956;2024-02-14T11:33:28;3.22;;;1.90;;
39044;SDS011;52192;52.002;5.956;2024-02-14T11:35:54;4.43;;;2.30;;
39044;SDS011;52192;52.002;5.956;2024-02-14T11:38:21;3.80;;;2.30;;
39044;SDS011;52192;52.002;5.956;2024-02-14T11:40:50;5.50;;;2.85;;
39044;SDS011;52192;52.002;5.956;2024-02-14T11:43:19;5.93;;;2.70;;
39044;SDS011;52192;52.002;5.956;2024-02-14T11:45:45;3.50;;;2.20;;
39044;SDS011;52192;52.002;5.956;2024-02-14T11:48:14;5.47;;;2.88;;
39044;SDS011;52192;52.002;5.956;2024-02-14T11:50:42;3.78;;;2.47;;
39044;SDS011;52192;52.002;5.956;2024-02-14T11:53:15;6.80;;;2.13;;
39044;SDS011;52192;52.002;5.956;2024-02-14T11:55:43;4.00;;;1.90;;
39044;SDS011;52192;52.002;5.956;2024-02-14T11:58:09;3.45;;;2.33;;
39044;SDS011;52192;52.002;5.956;2024-02-14T12:00:39;4.88;;;2.65;;
39044;SDS011;52192;52.002;5.956;2024-02-14T12:03:09;3.88;;;2.20;;
39044;SDS011;52192;52.002;5.956;2024-02-14T12:05:43;4.05;;;2.55;;
39044;SDS011;52192;52.002;5.956;2024-02-14T12:08:12;3.88;;;2.67;;
39044;SDS011;52192;52.002;5.956;2024-02-14T12:10:38;2.83;;;2.08;;
39044;SDS011;52192;52.002;5.956;2024-02-14T12:13:06;3.63;;;2.33;;
39044;SDS011;52192;52.002;5.956;2024-02-14T12:15:36;3.03;;;1.63;;
39044;SDS011;52192;52.002;5.956;2024-02-14T12:18:03;2.33;;;1.92;;
39044;SDS011;52192;52.002;5.956;2024-02-14T12:20:29;4.85;;;2.38;;
39044;SDS011;52192;52.002;5.956;2024-02-14T12:22:55;2.40;;;1.98;;
39044;SDS011;52192;52.002;5.956;2024-02-14T12:25:20;5.20;;;2.15;;
39044;SDS011;52192;52.002;5.956;2024-02-14T12:27:50;4.43;;;2.10;;
39044;SDS011;52192;52.002;5.956;2024-02-14T12:30:17;2.85;;;2.03;;
39044;SDS011;52192;52.002;5.956;2024-02-14T12:32:44;2.55;;;1.60;;
39044;SDS011;52192;52.002;5.956;2024-02-14T12:35:10;3.22;;;2.10;;
39044;SDS011;52192;52.002;5.956;2024-02-14T12:37:35;1.92;;;1.45;;
39044;SDS011;52192;52.002;5.956;2024-02-14T12:40:01;3.22;;;2.15;;
39044;SDS011;52192;52.002;5.956;2024-02-14T12:42:27;3.20;;;1.48;;
39044;SDS011;52192;52.002;5.956;2024-02-14T12:44:56;3.08;;;2.10;;
39044;SDS011;52192;52.002;5.956;2024-02-14T12:47:22;2.55;;;1.55;;
39044;SDS011;52192;52.002;5.956;2024-02-14T12:49:48;2.72;;;1.63;;
39044;SDS011;52192;52.002;5.956;2024-02-14T12:52:14;1.80;;;1.45;;
39044;SDS011;52192;52.002;5.956;2024-02-14T12:54:40;1.73;;;1.35;;
39044;SDS011;52192;52.002;5.956;2024-02-14T12:57:06;2.20;;;1.50;;
39044;SDS011;52192;52.002;5.956;2024-02-14T12:59:32;1.90;;;1.15;;
39044;SDS011;52192;52.002;5.956;2024-02-14T13:01:57;1.60;;;1.17;;
39044;SDS011;52192;52.002;5.956;2024-02-14T13:04:23;2.28;;;1.08;;
39044;SDS011;52192;52.002;5.956;2024-02-14T13:06:49;1.52;;;1.00;;
39044;SDS011;52192;52.002;5.956;2024-02-14T13:09:15;1.23;;;0.90;;
39044;SDS011;52192;52.002;5.956;2024-02-14T13:11:41;1.42;;;1.33;;
39044;SDS011;52192;52.002;5.956;2024-02-14T13:14:07;2.38;;;1.52;;
39044;SDS011;52192;52.002;5.956;2024-02-14T13:16:34;1.13;;;0.73;;
39044;SDS011;52192;52.002;5.956;2024-02-14T13:19:00;1.75;;;1.08;;
39044;SDS011;52192;52.002;5.956;2024-02-14T13:21:25;1.67;;;1.50;;
39044;SDS011;52192;52.002;5.956;2024-02-14T13:23:51;1.98;;;1.42;;
39044;SDS011;52192;52.002;5.956;2024-02-14T13:26:17;1.25;;;0.95;;
39044;SDS011;52192;52.002;5.956;2024-02-14T13:28:43;1.65;;;0.95;;
39044;SDS011;52192;52.002;5.956;2024-02-14T13:31:08;1.35;;;0.85;;
39044;SDS011;52192;52.002;5.956;2024-02-14T13:33:35;1.60;;;0.80;;
39044;SDS011;52192;52.002;5.956;2024-02-14T13:36:01;1.15;;;0.90;;
39044;SDS011;52192;52.002;5.956;2024-02-14T13:38:26;0.85;;;0.80;;
39044;SDS011;52192;52.002;5.956;2024-02-14T13:40:53;1.17;;;0.90;;
39044;SDS011;52192;52.002;5.956;2024-02-14T13:43:19;1.02;;;0.85;;
39044;SDS011;52192;52.002;5.956;2024-02-14T13:45:45;1.20;;;1.10;;
39044;SDS011;52192;52.002;5.956;2024-02-14T13:48:13;1.05;;;0.60;;
39044;SDS011;52192;52.002;5.956;2024-02-14T13:50:39;0.73;;;0.70;;
39044;SDS011;52192;52.002;5.956;2024-02-14T13:53:06;2.63;;;1.30;;
39044;SDS011;52192;52.002;5.956;2024-02-14T13:55:31;2.13;;;0.85;;
39044;SDS011;52192;52.002;5.956;2024-02-14T13:57:57;1.95;;;1.10;;
39044;SDS011;52192;52.002;5.956;2024-02-14T14:00:23;3.00;;;1.50;;
39044;SDS011;52192;52.002;5.956;2024-02-14T14:02:49;1.23;;;0.98;;
39044;SDS011;52192;52.002;5.956;2024-02-14T14:05:14;0.93;;;0.60;;
39044;SDS011;52192;52.002;5.956;2024-02-14T14:07:41;2.53;;;1.38;;
39044;SDS011;52192;52.002;5.956;2024-02-14T14:10:07;1.48;;;1.00;;
39044;SDS011;52192;52.002;5.956;2024-02-14T14:12:34;2.08;;;0.80;;
39044;SDS011;52192;52.002;5.956;2024-02-14T14:15:00;3.20;;;0.93;;
39044;SDS011;52192;52.002;5.956;2024-02-14T14:17:26;1.30;;;1.02;;
39044;SDS011;52192;52.002;5.956;2024-02-14T14:19:53;3.00;;;1.30;;
39044;SDS011;52192;52.002;5.956;2024-02-14T14:22:19;1.48;;;1.02;;
39044;SDS011;52192;52.002;5.956;2024-02-14T14:24:45;1.98;;;1.58;;
39044;SDS011;52192;52.002;5.956;2024-02-14T14:27:10;3.10;;;1.75;;
39044;SDS011;52192;52.002;5.956;2024-02-14T14:29:40;2.17;;;1.23;;
39044;SDS011;52192;52.002;5.956;2024-02-14T14:32:11;1.58;;;1.23;;
39044;SDS011;52192;52.002;5.956;2024-02-14T14:34:37;1.48;;;1.10;;
39044;SDS011;52192;52.002;5.956;2024-02-14T14:37:03;2.05;;;1.35;;
39044;SDS011;52192;52.002;5.956;2024-02-14T14:39:29;2.70;;;2.05;;
39044;SDS011;52192;52.002;5.956;2024-02-14T14:41:56;2.88;;;1.80;;
39044;SDS011;52192;52.002;5.956;2024-02-14T14:44:26;2.90;;;1.60;;
39044;SDS011;52192;52.002;5.956;2024-02-14T14:46:53;3.03;;;1.05;;